sensor_id;sensor_type;location;lat;lon;timestamp;temperature;humidity
14934;DHT22;7560;51.364;12.384;2022-12-10T00:04:00;2.30;99.90
14934;DHT22;7560;51.364;12.384;2022-12-10T00:09:04;2.20;99.90
14934;DHT22;7560;51.364;12.384;2022-12-10T00:14:06;2.20;99.90
14934;DHT22;7560;51.364;12.384;2022-12-10T00:19:08;2.30;99.90
14934;DHT22;7560;51.364;12.384;2022-12-10T00:24:11;2.10;99.90
14934;DHT22;7560;51.364;12.384;2022-12-10T00:29:13;2.00;99.90
14934;DHT22;7560;51.364;12.384;2022-12-10T00:34:15;2.00;99.90
14934;DHT22;7560;51.364;12.384;2022-12-10T00:39:19;2.00;99.90
14934;DHT22;7560;51.364;12.384;2022-12-10T00:44:21;1.90;99.90
14934;DHT22;7560;51.364;12.384;2022-12-10T00:49:22;2.00;99.90
14934;DHT22;7560;51.364;12.384;2022-12-10T00:54:25;2.20;99.90
14934;DHT22;7560;51.364;12.384;2022-12-10T00:59:27;1.90;99.90
14934;DHT22;7560;51.364;12.384;2022-12-10T01:04:29;1.90;99.90
14934;DHT22;7560;51.364;12.384;2022-12-10T01:09:31;2.00;99.90
14934;DHT22;7560;51.364;12.384;2022-12-10T01:14:33;2.20;99.90
14934;DHT22;7560;51.364;12.384;2022-12-10T01:19:35;2.10;99.90
14934;DHT22;7560;51.364;12.384;2022-12-10T01:24:37;2.10;99.90
14934;DHT22;7560;51.364;12.384;2022-12-10T01:29:39;2.10;99.90
14934;DHT22;7560;51.364;12.384;2022-12-10T01:34:40;2.00;99.90
14934;DHT22;7560;51.364;12.384;2022-12-10T01:39:42;2.10;99.90
14934;DHT22;7560;51.364;12.384;2022-12-10T01:49:45;2.10;99.90
14934;DHT22;7560;51.364;12.384;2022-12-10T01:54:47;2.00;99.90
14934;DHT22;7560;51.364;12.384;2022-12-10T01:59:52;1.90;99.90
14934;DHT22;7560;51.364;12.384;2022-12-10T02:10:33;2.00;99.90
14934;DHT22;7560;51.364;12.384;2022-12-10T02:15:50;1.90;99.90
14934;DHT22;7560;51.364;12.384;2022-12-10T02:20:56;2.00;99.90
14934;DHT22;7560;51.364;12.384;2022-12-10T02:31:23;2.00;99.90
14934;DHT22;7560;51.364;12.384;2022-12-10T02:36:30;2.00;99.90
14934;DHT22;7560;51.364;12.384;2022-12-10T02:41:37;1.90;99.90
14934;DHT22;7560;51.364;12.384;2022-12-10T02:46:43;1.90;99.90
14934;DHT22;7560;51.364;12.384;2022-12-10T02:51:45;1.90;99.90
14934;DHT22;7560;51.364;12.384;2022-12-10T02:56:54;1.90;99.90
14934;DHT22;7560;51.364;12.384;2022-12-10T03:02:19;1.80;99.90
14934;DHT22;7560;51.364;12.384;2022-12-10T03:07:33;1.80;99.90
14934;DHT22;7560;51.364;12.384;2022-12-10T03:12:44;1.90;99.90
14934;DHT22;7560;51.364;12.384;2022-12-10T03:17:48;1.90;99.90
14934;DHT22;7560;51.364;12.384;2022-12-10T03:22:51;2.00;99.90
14934;DHT22;7560;51.364;12.384;2022-12-10T03:27:55;2.00;99.90
14934;DHT22;7560;51.364;12.384;2022-12-10T03:32:57;2.00;99.90
14934;DHT22;7560;51.364;12.384;2022-12-10T03:37:59;2.00;99.90
14934;DHT22;7560;51.364;12.384;2022-12-10T03:43:01;2.00;99.90
14934;DHT22;7560;51.364;12.384;2022-12-10T03:48:03;2.00;99.90
14934;DHT22;7560;51.364;12.384;2022-12-10T03:53:04;1.90;99.90
14934;DHT22;7560;51.364;12.384;2022-12-10T03:58:06;1.80;99.90
14934;DHT22;7560;51.364;12.384;2022-12-10T04:03:08;1.70;99.90
14934;DHT22;7560;51.364;12.384;2022-12-10T04:08:10;1.70;99.90
14934;DHT22;7560;51.364;12.384;2022-12-10T04:13:11;1.60;99.90
14934;DHT22;7560;51.364;12.384;2022-12-10T04:18:32;1.70;99.90
14934;DHT22;7560;51.364;12.384;2022-12-10T04:23:33;1.60;99.90
14934;DHT22;7560;51.364;12.384;2022-12-10T04:28:54;1.70;99.90
14934;DHT22;7560;51.364;12.384;2022-12-10T04:33:55;1.80;99.90
14934;DHT22;7560;51.364;12.384;2022-12-10T04:38:57;1.90;99.90
14934;DHT22;7560;51.364;12.384;2022-12-10T04:43:59;1.90;99.90
14934;DHT22;7560;51.364;12.384;2022-12-10T04:49:01;1.70;99.90
14934;DHT22;7560;51.364;12.384;2022-12-10T04:54:03;1.80;99.90
14934;DHT22;7560;51.364;12.384;2022-12-10T04:59:06;1.60;99.90
14934;DHT22;7560;51.364;12.384;2022-12-10T05:04:11;1.70;99.90
14934;DHT22;7560;51.364;12.384;2022-12-10T05:09:13;1.80;99.90
14934;DHT22;7560;51.364;12.384;2022-12-10T05:14:15;1.70;99.90
14934;DHT22;7560;51.364;12.384;2022-12-10T05:19:17;1.80;99.90
14934;DHT22;7560;51.364;12.384;2022-12-10T05:24:20;1.60;99.90
14934;DHT22;7560;51.364;12.384;2022-12-10T05:29:22;1.60;99.90
14934;DHT22;7560;51.364;12.384;2022-12-10T05:34:24;1.50;99.90
14934;DHT22;7560;51.364;12.384;2022-12-10T05:39:26;1.50;99.90
14934;DHT22;7560;51.364;12.384;2022-12-10T05:44:27;1.60;99.90
14934;DHT22;7560;51.364;12.384;2022-12-10T05:49:30;1.50;99.90
14934;DHT22;7560;51.364;12.384;2022-12-10T05:54:32;1.50;99.90
14934;DHT22;7560;51.364;12.384;2022-12-10T05:59:34;1.50;99.90
14934;DHT22;7560;51.364;12.384;2022-12-10T06:04:35;1.40;99.90
14934;DHT22;7560;51.364;12.384;2022-12-10T06:09:37;1.40;99.90
14934;DHT22;7560;51.364;12.384;2022-12-10T06:14:39;1.40;99.90
14934;DHT22;7560;51.364;12.384;2022-12-10T06:19:41;1.40;99.90
14934;DHT22;7560;51.364;12.384;2022-12-10T06:24:42;1.40;99.90
14934;DHT22;7560;51.364;12.384;2022-12-10T06:29:44;1.40;99.90
14934;DHT22;7560;51.364;12.384;2022-12-10T06:34:46;1.40;99.90
14934;DHT22;7560;51.364;12.384;2022-12-10T06:39:50;1.40;99.90
14934;DHT22;7560;51.364;12.384;2022-12-10T06:44:52;1.30;99.90
14934;DHT22;7560;51.364;12.384;2022-12-10T06:49:54;1.40;99.90
14934;DHT22;7560;51.364;12.384;2022-12-10T06:54:56;1.40;99.90
14934;DHT22;7560;51.364;12.384;2022-12-10T06:59:58;1.50;99.90
14934;DHT22;7560;51.364;12.384;2022-12-10T07:04:59;1.40;99.90
14934;DHT22;7560;51.364;12.384;2022-12-10T07:10:02;1.40;99.90
14934;DHT22;7560;51.364;12.384;2022-12-10T07:15:04;1.30;99.90
14934;DHT22;7560;51.364;12.384;2022-12-10T07:20:06;1.30;99.90
14934;DHT22;7560;51.364;12.384;2022-12-10T07:25:09;1.20;99.90
14934;DHT22;7560;51.364;12.384;2022-12-10T07:30:11;1.20;99.90
14934;DHT22;7560;51.364;12.384;2022-12-10T07:35:13;1.30;99.90
14934;DHT22;7560;51.364;12.384;2022-12-10T07:40:15;1.30;99.90
14934;DHT22;7560;51.364;12.384;2022-12-10T07:45:16;1.30;99.90
14934;DHT22;7560;51.364;12.384;2022-12-10T07:50:18;1.10;99.90
14934;DHT22;7560;51.364;12.384;2022-12-10T07:55:20;1.30;99.90
14934;DHT22;7560;51.364;12.384;2022-12-10T08:00:21;1.10;99.90
14934;DHT22;7560;51.364;12.384;2022-12-10T08:05:24;1.20;99.90
14934;DHT22;7560;51.364;12.384;2022-12-10T08:10:25;1.30;99.90
14934;DHT22;7560;51.364;12.384;2022-12-10T08:15:27;1.40;99.90
14934;DHT22;7560;51.364;12.384;2022-12-10T08:20:29;1.40;99.90
14934;DHT22;7560;51.364;12.384;2022-12-10T08:25:31;1.30;99.90
14934;DHT22;7560;51.364;12.384;2022-12-10T08:30:45;1.30;99.90
14934;DHT22;7560;51.364;12.384;2022-12-10T08:35:47;1.40;99.90
14934;DHT22;7560;51.364;12.384;2022-12-10T08:40:49;1.30;99.90
14934;DHT22;7560;51.364;12.384;2022-12-10T08:45:51;1.40;99.90
14934;DHT22;7560;51.364;12.384;2022-12-10T08:50:53;1.40;99.90
14934;DHT22;7560;51.364;12.384;2022-12-10T08:55:55;1.40;99.90
14934;DHT22;7560;51.364;12.384;2022-12-10T09:00:57;1.50;99.90
14934;DHT22;7560;51.364;12.384;2022-12-10T09:06:09;1.40;99.90
14934;DHT22;7560;51.364;12.384;2022-12-10T09:11:15;1.40;99.90
14934;DHT22;7560;51.364;12.384;2022-12-10T09:16:17;1.50;99.90
14934;DHT22;7560;51.364;12.384;2022-12-10T09:21:19;1.60;99.90
14934;DHT22;7560;51.364;12.384;2022-12-10T09:26:22;1.60;99.90
14934;DHT22;7560;51.364;12.384;2022-12-10T09:31:23;1.70;99.90
14934;DHT22;7560;51.364;12.384;2022-12-10T09:36:26;1.60;99.90
14934;DHT22;7560;51.364;12.384;2022-12-10T09:51:56;1.50;99.90
14934;DHT22;7560;51.364;12.384;2022-12-10T09:57:00;1.70;99.90
14934;DHT22;7560;51.364;12.384;2022-12-10T10:02:24;1.60;99.90
14934;DHT22;7560;51.364;12.384;2022-12-10T10:07:29;1.60;99.90
14934;DHT22;7560;51.364;12.384;2022-12-10T10:12:33;1.70;99.90
14934;DHT22;7560;51.364;12.384;2022-12-10T10:17:36;1.60;99.90
14934;DHT22;7560;51.364;12.384;2022-12-10T10:22:39;1.80;99.90
14934;DHT22;7560;51.364;12.384;2022-12-10T10:27:41;1.80;99.90
14934;DHT22;7560;51.364;12.384;2022-12-10T10:32:44;2.10;99.90
14934;DHT22;7560;51.364;12.384;2022-12-10T10:37:49;1.70;99.90
14934;DHT22;7560;51.364;12.384;2022-12-10T10:42:54;2.00;99.90
14934;DHT22;7560;51.364;12.384;2022-12-10T10:53:26;1.80;99.90
14934;DHT22;7560;51.364;12.384;2022-12-10T10:58:29;1.60;99.90
14934;DHT22;7560;51.364;12.384;2022-12-10T11:03:33;1.70;99.90
14934;DHT22;7560;51.364;12.384;2022-12-10T11:08:37;1.80;99.90
14934;DHT22;7560;51.364;12.384;2022-12-10T11:13:40;2.00;99.90
14934;DHT22;7560;51.364;12.384;2022-12-10T11:18:55;2.00;99.90
14934;DHT22;7560;51.364;12.384;2022-12-10T11:24:00;2.00;99.90
14934;DHT22;7560;51.364;12.384;2022-12-10T11:51:45;2.20;99.90
14934;DHT22;7560;51.364;12.384;2022-12-10T11:56:58;2.10;99.90
14934;DHT22;7560;51.364;12.384;2022-12-10T12:02:30;1.90;99.90
14934;DHT22;7560;51.364;12.384;2022-12-10T12:28:59;1.80;99.90
14934;DHT22;7560;51.364;12.384;2022-12-10T12:34:21;1.90;99.90
14934;DHT22;7560;51.364;12.384;2022-12-10T12:45:16;1.90;99.90
14934;DHT22;7560;51.364;12.384;2022-12-10T12:50:44;2.00;99.90
14934;DHT22;7560;51.364;12.384;2022-12-10T13:00:57;2.00;99.90
14934;DHT22;7560;51.364;12.384;2022-12-10T13:06:21;2.00;99.90
14934;DHT22;7560;51.364;12.384;2022-12-10T13:11:33;2.20;99.90
14934;DHT22;7560;51.364;12.384;2022-12-10T13:48:44;2.40;99.90
14934;DHT22;7560;51.364;12.384;2022-12-10T14:09:54;2.00;99.90
14934;DHT22;7560;51.364;12.384;2022-12-10T14:15:08;1.80;99.90
14934;DHT22;7560;51.364;12.384;2022-12-10T14:20:23;1.80;99.90
14934;DHT22;7560;51.364;12.384;2022-12-10T14:25:25;1.90;99.90
14934;DHT22;7560;51.364;12.384;2022-12-10T14:30:28;1.90;99.90
14934;DHT22;7560;51.364;12.384;2022-12-10T14:35:30;1.80;99.90
14934;DHT22;7560;51.364;12.384;2022-12-10T14:40:35;1.60;99.90
14934;DHT22;7560;51.364;12.384;2022-12-10T14:45:52;1.50;99.90
14934;DHT22;7560;51.364;12.384;2022-12-10T14:51:10;1.60;99.90
14934;DHT22;7560;51.364;12.384;2022-12-10T14:56:29;1.60;99.90
14934;DHT22;7560;51.364;12.384;2022-12-10T15:01:36;1.50;99.90
14934;DHT22;7560;51.364;12.384;2022-12-10T15:06:38;1.50;99.90
14934;DHT22;7560;51.364;12.384;2022-12-10T15:11:40;1.40;99.90
14934;DHT22;7560;51.364;12.384;2022-12-10T15:16:43;1.30;99.90
14934;DHT22;7560;51.364;12.384;2022-12-10T15:21:47;1.30;99.90
14934;DHT22;7560;51.364;12.384;2022-12-10T15:26:50;1.30;99.90
14934;DHT22;7560;51.364;12.384;2022-12-10T15:31:58;1.40;99.90
14934;DHT22;7560;51.364;12.384;2022-12-10T15:37:02;1.40;99.90
14934;DHT22;7560;51.364;12.384;2022-12-10T15:42:06;1.50;99.90
14934;DHT22;7560;51.364;12.384;2022-12-10T15:52:21;1.50;99.90
14934;DHT22;7560;51.364;12.384;2022-12-10T15:57:27;1.50;99.90
14934;DHT22;7560;51.364;12.384;2022-12-10T16:07:47;1.40;99.90
14934;DHT22;7560;51.364;12.384;2022-12-10T16:13:02;1.30;99.90
14934;DHT22;7560;51.364;12.384;2022-12-10T16:18:08;1.30;99.90
14934;DHT22;7560;51.364;12.384;2022-12-10T16:23:11;1.30;99.90
14934;DHT22;7560;51.364;12.384;2022-12-10T16:28:21;1.30;99.90
14934;DHT22;7560;51.364;12.384;2022-12-10T16:33:24;1.40;99.90
14934;DHT22;7560;51.364;12.384;2022-12-10T16:38:26;1.40;99.90
14934;DHT22;7560;51.364;12.384;2022-12-10T16:43:29;1.30;99.90
14934;DHT22;7560;51.364;12.384;2022-12-10T16:48:31;1.40;99.90
14934;DHT22;7560;51.364;12.384;2022-12-10T16:53:33;1.40;99.90
14934;DHT22;7560;51.364;12.384;2022-12-10T16:58:37;1.30;99.90
14934;DHT22;7560;51.364;12.384;2022-12-10T17:03:39;1.40;99.90
14934;DHT22;7560;51.364;12.384;2022-12-10T17:08:41;1.40;99.90
14934;DHT22;7560;51.364;12.384;2022-12-10T17:13:44;1.40;99.90
14934;DHT22;7560;51.364;12.384;2022-12-10T17:18:46;1.50;99.90
14934;DHT22;7560;51.364;12.384;2022-12-10T17:23:48;1.50;99.90
14934;DHT22;7560;51.364;12.384;2022-12-10T17:28:50;1.50;99.90
14934;DHT22;7560;51.364;12.384;2022-12-10T17:33:52;1.50;99.90
14934;DHT22;7560;51.364;12.384;2022-12-10T17:38:53;1.30;99.90
14934;DHT22;7560;51.364;12.384;2022-12-10T17:43:55;1.20;99.90
14934;DHT22;7560;51.364;12.384;2022-12-10T17:48:57;1.10;99.90
14934;DHT22;7560;51.364;12.384;2022-12-10T17:54:05;1.20;99.90
14934;DHT22;7560;51.364;12.384;2022-12-10T17:59:06;1.10;99.90
14934;DHT22;7560;51.364;12.384;2022-12-10T18:04:08;1.30;99.90
14934;DHT22;7560;51.364;12.384;2022-12-10T18:09:11;1.30;99.90
14934;DHT22;7560;51.364;12.384;2022-12-10T18:14:13;1.30;99.90
14934;DHT22;7560;51.364;12.384;2022-12-10T18:19:16;1.30;99.90
14934;DHT22;7560;51.364;12.384;2022-12-10T18:24:19;1.40;99.90
14934;DHT22;7560;51.364;12.384;2022-12-10T18:29:21;1.40;99.90
14934;DHT22;7560;51.364;12.384;2022-12-10T18:34:22;1.40;99.90
14934;DHT22;7560;51.364;12.384;2022-12-10T18:39:27;1.30;99.90
14934;DHT22;7560;51.364;12.384;2022-12-10T18:44:30;1.20;99.90
14934;DHT22;7560;51.364;12.384;2022-12-10T18:49:35;1.20;99.90
14934;DHT22;7560;51.364;12.384;2022-12-10T18:54:37;1.10;99.90
14934;DHT22;7560;51.364;12.384;2022-12-10T18:59:42;1.00;99.90
14934;DHT22;7560;51.364;12.384;2022-12-10T19:04:44;0.90;99.90
14934;DHT22;7560;51.364;12.384;2022-12-10T19:09:46;1.00;99.90
14934;DHT22;7560;51.364;12.384;2022-12-10T19:14:51;0.90;99.90
14934;DHT22;7560;51.364;12.384;2022-12-10T19:19:52;0.90;99.90
14934;DHT22;7560;51.364;12.384;2022-12-10T19:24:54;1.10;99.90
14934;DHT22;7560;51.364;12.384;2022-12-10T19:29:56;1.10;99.90
14934;DHT22;7560;51.364;12.384;2022-12-10T19:34:58;1.20;99.90
14934;DHT22;7560;51.364;12.384;2022-12-10T19:40:00;1.00;99.90
14934;DHT22;7560;51.364;12.384;2022-12-10T19:45:02;1.00;99.90
14934;DHT22;7560;51.364;12.384;2022-12-10T19:50:04;0.90;99.90
14934;DHT22;7560;51.364;12.384;2022-12-10T19:55:06;0.80;99.90
14934;DHT22;7560;51.364;12.384;2022-12-10T20:00:15;0.80;99.90
14934;DHT22;7560;51.364;12.384;2022-12-10T20:05:18;0.80;99.90
14934;DHT22;7560;51.364;12.384;2022-12-10T20:10:27;0.80;99.90
14934;DHT22;7560;51.364;12.384;2022-12-10T20:15:29;0.80;99.90
14934;DHT22;7560;51.364;12.384;2022-12-10T20:20:31;0.80;99.90
14934;DHT22;7560;51.364;12.384;2022-12-10T20:25:33;0.80;99.90
14934;DHT22;7560;51.364;12.384;2022-12-10T20:30:34;0.80;99.90
14934;DHT22;7560;51.364;12.384;2022-12-10T20:35:37;0.90;99.90
14934;DHT22;7560;51.364;12.384;2022-12-10T20:40:43;0.80;99.90
14934;DHT22;7560;51.364;12.384;2022-12-10T20:45:45;0.90;99.90
14934;DHT22;7560;51.364;12.384;2022-12-10T20:50:46;1.00;99.90
14934;DHT22;7560;51.364;12.384;2022-12-10T20:55:48;0.90;99.90
14934;DHT22;7560;51.364;12.384;2022-12-10T21:00:50;0.80;99.90
14934;DHT22;7560;51.364;12.384;2022-12-10T21:05:52;0.90;99.90
14934;DHT22;7560;51.364;12.384;2022-12-10T21:10:53;0.80;99.90
14934;DHT22;7560;51.364;12.384;2022-12-10T21:15:58;0.90;99.90
14934;DHT22;7560;51.364;12.384;2022-12-10T21:21:00;1.00;99.90
14934;DHT22;7560;51.364;12.384;2022-12-10T21:26:02;1.00;99.90
14934;DHT22;7560;51.364;12.384;2022-12-10T21:31:04;0.80;99.90
14934;DHT22;7560;51.364;12.384;2022-12-10T21:36:08;0.80;99.90
14934;DHT22;7560;51.364;12.384;2022-12-10T21:41:15;0.80;99.90
14934;DHT22;7560;51.364;12.384;2022-12-10T21:46:38;0.70;99.90
14934;DHT22;7560;51.364;12.384;2022-12-10T21:51:41;0.40;99.90
14934;DHT22;7560;51.364;12.384;2022-12-10T21:56:43;0.40;99.90
14934;DHT22;7560;51.364;12.384;2022-12-10T22:01:45;0.30;99.90
14934;DHT22;7560;51.364;12.384;2022-12-10T22:06:46;0.30;99.90
14934;DHT22;7560;51.364;12.384;2022-12-10T22:11:48;0.20;99.90
14934;DHT22;7560;51.364;12.384;2022-12-10T22:16:50;0.20;99.90
14934;DHT22;7560;51.364;12.384;2022-12-10T22:21:51;0.20;99.90
14934;DHT22;7560;51.364;12.384;2022-12-10T22:26:53;0.00;99.90
14934;DHT22;7560;51.364;12.384;2022-12-10T22:31:55;0.00;99.90
14934;DHT22;7560;51.364;12.384;2022-12-10T22:36:56;-0.10;99.90
14934;DHT22;7560;51.364;12.384;2022-12-10T22:41:58;0.00;99.90
14934;DHT22;7560;51.364;12.384;2022-12-10T22:47:00;0.00;99.90
14934;DHT22;7560;51.364;12.384;2022-12-10T22:52:02;-0.10;99.90
14934;DHT22;7560;51.364;12.384;2022-12-10T22:57:04;-0.10;99.90
14934;DHT22;7560;51.364;12.384;2022-12-10T23:02:06;-0.10;99.90
14934;DHT22;7560;51.364;12.384;2022-12-10T23:07:08;-0.20;99.90
14934;DHT22;7560;51.364;12.384;2022-12-10T23:12:10;-0.10;99.90
14934;DHT22;7560;51.364;12.384;2022-12-10T23:17:30;-0.20;99.90
14934;DHT22;7560;51.364;12.384;2022-12-10T23:22:32;-0.30;99.90
14934;DHT22;7560;51.364;12.384;2022-12-10T23:27:34;-0.30;99.90
14934;DHT22;7560;51.364;12.384;2022-12-10T23:32:37;-0.30;99.90
14934;DHT22;7560;51.364;12.384;2022-12-10T23:37:38;-0.20;99.90
14934;DHT22;7560;51.364;12.384;2022-12-10T23:42:40;-0.30;99.90
14934;DHT22;7560;51.364;12.384;2022-12-10T23:47:42;-0.30;99.90
14934;DHT22;7560;51.364;12.384;2022-12-10T23:52:44;-0.20;99.90
14934;DHT22;7560;51.364;12.384;2022-12-10T23:57:45;-0.30;99.90
